createdAt,value
2023-01-05T00:01:36.132Z,1.25
2023-01-05T00:04:39.742Z,1.30
2023-01-05T00:07:53.587Z,1.33
2023-01-05T00:11:44.357Z,0.88
2023-01-05T00:15:22.459Z,1.45
2023-01-05T00:18:43.961Z,0.98
2023-01-05T00:22:04.495Z,1.58
2023-01-05T00:25:37.066Z,0.93
2023-01-05T00:28:45.887Z,1.00
2023-01-05T00:31:49.823Z,1.13
2023-01-05T00:35:00.723Z,1.00
2023-01-05T00:38:10.500Z,1.02
2023-01-05T00:41:18.443Z,1.08
2023-01-05T00:44:29.388Z,0.77
2023-01-05T00:47:37.212Z,1.20
2023-01-05T00:50:41.665Z,0.70
2023-01-05T00:53:50.855Z,0.93
2023-01-05T00:56:54.738Z,0.88
2023-01-05T01:00:02.227Z,1.02
2023-01-05T01:03:09.078Z,0.88
2023-01-05T01:06:20.183Z,1.35
2023-01-05T01:09:24.935Z,0.77
2023-01-05T01:12:35.806Z,1.05
2023-01-05T01:15:53.715Z,1.20
2023-01-05T01:19:01.733Z,1.25
2023-01-05T01:22:32.138Z,1.23
2023-01-05T01:25:39.844Z,0.85
2023-01-05T01:28:43.661Z,1.15
2023-01-05T01:31:48.952Z,1.48
2023-01-05T01:34:57.809Z,1.10
2023-01-05T01:38:02.713Z,0.85
2023-01-05T01:41:07.882Z,1.08
2023-01-05T01:44:29.978Z,1.08
2023-01-05T01:47:39.935Z,0.80
2023-01-05T01:50:46.367Z,0.73
2023-01-05T01:53:57.408Z,0.75
2023-01-05T01:57:04.032Z,0.77
2023-01-05T02:00:20.823Z,1.20
2023-01-05T02:04:21.768Z,0.55
2023-01-05T02:07:26.559Z,0.85
2023-01-05T02:10:35.884Z,0.75
2023-01-05T02:13:45.228Z,0.68
2023-01-05T02:17:05.891Z,1.00
2023-01-05T02:20:27.142Z,1.20
2023-01-05T02:23:54.016Z,0.82
2023-01-05T02:27:13.117Z,0.80
2023-01-05T02:30:35.249Z,0.70
2023-01-05T02:34:03.239Z,0.77
2023-01-05T02:37:28.586Z,0.60
2023-01-05T02:40:47.305Z,0.65
2023-01-05T02:44:21.054Z,0.68
2023-01-05T02:52:13.730Z,0.47
2023-01-05T02:56:15.236Z,0.70
2023-01-05T02:59:47.824Z,0.95
2023-01-05T03:03:12.508Z,0.65
2023-01-05T03:10:37.500Z,0.68
2023-01-05T03:13:42.297Z,0.60
2023-01-05T03:16:49.773Z,0.85
2023-01-05T03:19:54.574Z,1.05
2023-01-05T03:23:18.309Z,0.70
2023-01-05T03:26:55.826Z,0.68
2023-01-05T03:30:16.855Z,0.82
2023-01-05T03:33:40.514Z,0.70
2023-01-05T03:36:54.181Z,0.80
2023-01-05T03:39:58.803Z,0.52
2023-01-05T03:43:04.612Z,0.65
2023-01-05T03:46:13.467Z,0.55
2023-01-05T03:49:17.928Z,0.57
2023-01-05T03:52:21.881Z,0.80
2023-01-05T03:55:25.180Z,0.73
2023-01-05T03:58:32.271Z,0.65
2023-01-05T04:01:36.091Z,1.10
2023-01-05T04:04:40.850Z,0.93
2023-01-05T04:07:45.963Z,1.10
2023-01-05T04:10:49.834Z,0.50
2023-01-05T04:14:22.255Z,0.60
2023-01-05T04:17:25.936Z,0.50
2023-01-05T04:20:30.482Z,0.70
2023-01-05T04:23:35.537Z,0.80
2023-01-05T04:27:27.277Z,0.90
2023-01-05T04:30:31.957Z,0.65
2023-01-05T04:33:36.320Z,0.57
2023-01-05T04:36:41.331Z,0.65
2023-01-05T04:39:51.707Z,0.88
2023-01-05T04:42:55.899Z,1.25
2023-01-05T04:46:01.037Z,0.88
2023-01-05T04:49:06.062Z,0.68
2023-01-05T04:52:10.010Z,0.70
2023-01-05T04:55:42.476Z,0.68
2023-01-05T04:58:46.651Z,0.57
2023-01-05T05:05:40.031Z,0.98
2023-01-05T05:08:45.639Z,0.63
2023-01-05T05:11:49.054Z,0.70
2023-01-05T05:14:54.973Z,1.20
2023-01-05T05:18:04.196Z,0.52
2023-01-05T05:21:10.460Z,1.13
2023-01-05T05:24:15.633Z,1.00
2023-01-05T05:27:21.522Z,0.98
2023-01-05T05:30:25.050Z,0.70
2023-01-05T05:33:29.671Z,0.98
2023-01-05T05:36:32.894Z,0.60
2023-01-05T05:39:36.098Z,1.15
2023-01-05T05:42:46.812Z,1.05
2023-01-05T05:45:51.102Z,0.43
2023-01-05T05:48:55.927Z,0.70
2023-01-05T05:51:59.244Z,0.40
2023-01-05T06:08:57.341Z,0.65
2023-01-05T06:12:49.966Z,0.95
2023-01-05T06:16:04.846Z,0.77
2023-01-05T06:23:58.254Z,0.52
2023-01-05T06:27:14.530Z,0.90
2023-01-05T06:31:05.723Z,0.60
2023-01-05T06:35:07.217Z,0.88
2023-01-05T06:38:38.445Z,0.70
2023-01-05T06:41:45.887Z,0.65
2023-01-05T06:44:49.121Z,1.42
2023-01-05T06:47:52.550Z,0.57
2023-01-05T06:50:55.875Z,0.30
2023-01-05T06:53:59.416Z,1.63
2023-01-05T06:57:06.591Z,0.77
2023-01-05T07:00:11.054Z,0.70
2023-01-05T07:03:14.826Z,0.82
2023-01-05T07:06:18.510Z,0.82
2023-01-05T07:09:21.815Z,0.82
2023-01-05T07:12:26.442Z,1.08
2023-01-05T07:15:30.626Z,0.90
2023-01-05T07:18:38.947Z,0.98
2023-01-05T07:21:56.581Z,0.60
2023-01-05T07:25:10.290Z,1.00
2023-01-05T07:28:15.018Z,0.88
2023-01-05T07:31:18.355Z,1.65
2023-01-05T07:34:55.223Z,0.90
2023-01-05T07:38:06.124Z,0.90
2023-01-05T07:44:29.791Z,0.80
2023-01-05T07:47:33.304Z,0.80
2023-01-05T07:51:19.850Z,0.95
2023-01-05T07:54:23.982Z,0.95
2023-01-05T07:57:27.324Z,0.77
2023-01-05T08:00:32.072Z,0.65
2023-01-05T08:03:36.319Z,0.70
2023-01-05T08:06:39.612Z,1.13
2023-01-05T08:10:01.891Z,0.80
2023-01-05T08:13:29.891Z,0.75
2023-01-05T08:16:35.055Z,0.90
2023-01-05T08:19:38.462Z,0.98
2023-01-05T08:26:28.741Z,1.13
2023-01-05T08:29:32.417Z,1.05
2023-01-05T08:32:37.139Z,1.15
2023-01-05T08:35:44.136Z,0.80
2023-01-05T08:38:49.114Z,0.85
2023-01-05T08:41:55.074Z,0.93
2023-01-05T08:45:02.281Z,1.08
2023-01-05T08:48:36.252Z,1.48
2023-01-05T08:52:08.604Z,0.88
2023-01-05T08:55:16.232Z,0.70
2023-01-05T08:58:41.478Z,0.90
2023-01-05T09:01:51.818Z,1.10
2023-01-05T09:05:32.473Z,1.05
2023-01-05T09:13:19.069Z,0.70
2023-01-05T09:16:49.510Z,0.98
2023-01-05T09:19:47.618Z,1.20
2023-01-05T09:22:50.990Z,1.02
2023-01-05T09:26:24.359Z,0.85
2023-01-05T09:29:29.058Z,0.85
2023-01-05T09:33:01.365Z,0.80
2023-01-05T09:40:01.531Z,0.60
2023-01-05T09:43:05.028Z,0.80
2023-01-05T09:46:12.757Z,0.88
2023-01-05T09:49:16.936Z,0.88
2023-01-05T09:55:42.235Z,0.90
2023-01-05T09:58:45.821Z,0.98
2023-01-05T10:01:54.297Z,0.75
2023-01-05T10:04:58.778Z,0.90
2023-01-05T10:08:07.398Z,0.82
2023-01-05T10:11:31.924Z,0.73
2023-01-05T10:14:43.340Z,0.70
2023-01-05T10:17:55.598Z,0.85
2023-01-05T10:21:15.231Z,0.45
2023-01-05T10:24:26.393Z,0.60
2023-01-05T10:27:31.562Z,0.93
2023-01-05T10:31:03.481Z,1.02
2023-01-05T10:34:33.543Z,1.33
2023-01-05T10:37:52.095Z,1.50
2023-01-05T10:41:04.497Z,0.75
2023-01-05T10:44:24.897Z,1.13
2023-01-05T10:47:30.694Z,0.88
2023-01-05T10:50:39.332Z,1.15
2023-01-05T10:53:43.893Z,0.50
2023-01-05T10:56:50.325Z,1.45
2023-01-05T11:03:14.428Z,0.70
2023-01-05T11:10:54.126Z,0.77
2023-01-05T11:14:42.426Z,0.98
2023-01-05T11:18:01.547Z,0.63
2023-01-05T11:25:24.583Z,0.70
2023-01-05T11:29:27.433Z,0.82
2023-01-05T11:32:40.905Z,0.57
2023-01-05T11:35:52.968Z,1.02
2023-01-05T11:39:06.670Z,0.65
2023-01-05T11:42:45.466Z,0.65
2023-01-05T11:45:58.637Z,1.48
2023-01-05T11:49:03.423Z,1.00
2023-01-05T11:52:25.431Z,0.70
2023-01-05T11:55:35.230Z,0.70
2023-01-05T11:58:44.523Z,0.60
2023-01-05T12:01:58.781Z,1.08
2023-01-05T12:05:11.693Z,0.73
2023-01-05T12:08:17.022Z,0.70
2023-01-05T12:11:28.779Z,0.93
2023-01-05T12:18:13.357Z,0.88
2023-01-05T12:26:06.255Z,0.85
2023-01-05T12:37:02.377Z,1.00
2023-01-05T12:40:34.108Z,1.77
2023-01-05T12:44:12.849Z,0.60
2023-01-05T12:47:50.607Z,0.80
2023-01-05T12:51:02.117Z,0.93
2023-01-05T12:54:09.151Z,1.00
2023-01-05T13:01:43.256Z,1.17
2023-01-05T13:04:54.297Z,0.73
2023-01-05T13:08:40.868Z,0.65
2023-01-05T13:12:04.555Z,0.70
2023-01-05T13:16:05.951Z,0.82
2023-01-05T13:19:34.608Z,0.80
2023-01-05T13:22:49.322Z,0.60
2023-01-05T13:26:10.404Z,0.68
2023-01-05T13:33:59.913Z,0.80
2023-01-05T13:37:10.284Z,0.77
2023-01-05T13:45:04.803Z,0.85
2023-01-05T13:52:01.957Z,0.60
2023-01-05T13:55:14.411Z,0.60
2023-01-05T13:58:54.799Z,0.50
2023-01-05T14:02:44.486Z,0.65
2023-01-05T14:06:16.543Z,0.50
2023-01-05T14:09:39.485Z,0.40
2023-01-05T14:13:16.816Z,0.52
2023-01-05T14:24:47.790Z,0.50
2023-01-05T14:28:20.192Z,0.57
2023-01-05T14:32:11.360Z,0.47
2023-01-05T14:36:53.444Z,0.45
2023-01-05T14:44:25.201Z,0.50
2023-01-05T14:48:16.988Z,0.50
2023-01-05T14:51:40.659Z,0.60
2023-01-05T14:57:06.237Z,0.50
2023-01-05T14:59:54.278Z,0.50
2023-01-05T15:07:52.351Z,0.43
2023-01-05T15:11:09.745Z,0.55
2023-01-05T15:19:16.665Z,0.90
2023-01-05T15:27:30.734Z,0.55
2023-01-05T15:31:09.284Z,0.40
2023-01-05T15:34:22.934Z,0.60
2023-01-05T15:37:31.303Z,0.57
2023-01-05T15:40:59.470Z,0.68
2023-01-05T15:44:35.502Z,0.57
2023-01-05T15:48:23.734Z,0.55
2023-01-05T15:51:54.707Z,0.73
2023-01-05T15:55:25.163Z,0.75
2023-01-05T16:17:18.886Z,0.60
2023-01-05T16:21:15.936Z,0.40
2023-01-05T16:34:57.648Z,0.70
2023-01-05T16:38:38.558Z,0.80
2023-01-05T16:42:32.714Z,0.50
2023-01-05T16:46:12.450Z,0.60
2023-01-05T16:49:58.183Z,0.40
2023-01-05T16:53:26.414Z,0.93
2023-01-05T16:56:53.485Z,1.08
2023-01-05T17:01:16.656Z,0.80
2023-01-05T17:05:03.117Z,0.80
2023-01-05T17:08:58.085Z,0.70
2023-01-05T17:12:45.604Z,0.70
2023-01-05T17:16:11.695Z,0.77
2023-01-05T17:19:36.464Z,0.60
2023-01-05T17:27:01.965Z,1.15
2023-01-05T17:30:25.753Z,1.00
2023-01-05T17:42:28.517Z,0.57
2023-01-05T17:46:12.000Z,0.80
2023-01-05T17:50:12.501Z,0.47
2023-01-05T17:53:37.101Z,0.60
2023-01-05T17:57:45.826Z,0.50
2023-01-05T18:01:10.840Z,0.63
2023-01-05T18:04:52.945Z,0.65
2023-01-05T18:08:17.986Z,0.55
2023-01-05T18:12:10.513Z,0.70
2023-01-05T18:15:34.191Z,0.55
2023-01-05T18:19:02.206Z,1.00
2023-01-05T18:26:50.712Z,4.25
2023-01-05T18:35:07.331Z,3.33
2023-01-05T18:38:33.678Z,3.70
2023-01-05T18:41:57.580Z,3.15
2023-01-05T18:46:36.778Z,2.90
2023-01-05T18:50:42.904Z,3.47
2023-01-05T18:54:08.202Z,4.43
2023-01-05T18:57:32.683Z,7.78
2023-01-05T19:01:45.715Z,10.52
2023-01-05T19:05:28.186Z,8.60
2023-01-05T19:08:52.413Z,5.10
2023-01-05T19:12:20.983Z,4.05
2023-01-05T19:15:58.530Z,3.92
2023-01-05T19:19:28.754Z,3.30
2023-01-05T19:23:36.703Z,2.60
2023-01-05T19:37:12.364Z,2.80
2023-01-05T19:40:37.356Z,2.17
2023-01-05T19:53:18.344Z,2.50
2023-01-05T19:56:43.837Z,2.08
2023-01-05T20:00:08.302Z,2.38
2023-01-05T20:03:46.678Z,2.92
2023-01-05T20:07:10.314Z,2.90
2023-01-05T20:10:34.027Z,4.03
2023-01-05T20:13:58.952Z,4.55
2023-01-05T20:17:22.786Z,3.25
2023-01-05T20:20:46.409Z,3.50
2023-01-05T20:24:12.161Z,3.00
2023-01-05T20:27:36.367Z,3.67
2023-01-05T20:31:03.600Z,3.47
2023-01-05T20:34:38.212Z,4.35
2023-01-05T20:38:04.133Z,4.10
2023-01-05T20:41:36.427Z,3.65
2023-01-05T20:45:01.003Z,4.18
2023-01-05T20:49:10.221Z,4.25
2023-01-05T20:52:40.467Z,4.05
2023-01-05T20:56:05.838Z,3.80
2023-01-05T20:59:30.502Z,4.20
2023-01-05T21:02:54.189Z,3.30
2023-01-05T21:06:19.798Z,3.13
2023-01-05T21:09:44.939Z,3.83
2023-01-05T21:13:32.190Z,2.75
2023-01-05T21:17:01.826Z,2.83
2023-01-05T21:20:27.916Z,2.20
2023-01-05T21:24:01.022Z,2.45
2023-01-05T21:27:29.217Z,2.35
2023-01-05T21:30:53.317Z,2.20
2023-01-05T21:34:26.882Z,3.08
2023-01-05T21:37:55.269Z,2.42
2023-01-05T21:41:55.182Z,2.05
2023-01-05T21:45:33.775Z,1.92
2023-01-05T21:48:58.025Z,2.47
2023-01-05T21:52:39.769Z,2.45
2023-01-05T21:56:24.280Z,2.88
2023-01-05T21:59:50.352Z,1.23
2023-01-05T22:03:16.908Z,2.22
2023-01-05T22:07:01.160Z,2.17
2023-01-05T22:10:24.982Z,2.05
2023-01-05T22:13:48.603Z,1.60
2023-01-05T22:17:14.580Z,1.92
2023-01-05T22:20:44.892Z,1.80
2023-01-05T22:24:12.490Z,1.73
2023-01-05T22:27:49.178Z,1.83
2023-01-05T22:31:17.294Z,1.45
2023-01-05T22:34:47.901Z,1.67
2023-01-05T22:38:20.772Z,2.50
2023-01-05T22:41:46.267Z,2.10
2023-01-05T22:45:19.758Z,1.90
2023-01-05T22:48:48.446Z,1.35
2023-01-05T22:52:14.968Z,1.95
2023-01-05T22:55:46.135Z,1.85
2023-01-05T22:59:14.733Z,2.22
2023-01-05T23:02:41.834Z,1.73
2023-01-05T23:06:06.362Z,2.15
2023-01-05T23:09:31.271Z,1.80
2023-01-05T23:12:59.817Z,1.90
2023-01-05T23:16:26.548Z,2.03
2023-01-05T23:19:50.563Z,1.80
2023-01-05T23:23:20.044Z,2.22
2023-01-05T23:26:48.354Z,1.98
2023-01-05T23:30:42.989Z,1.80
2023-01-05T23:34:09.729Z,1.60
2023-01-05T23:37:35.724Z,1.60
2023-01-05T23:41:45.775Z,1.45
2023-01-05T23:45:30.509Z,1.35
2023-01-05T23:49:05.931Z,1.50
2023-01-05T23:52:29.508Z,1.60
2023-01-05T23:56:27.204Z,1.65
2023-01-05T23:59:59.019Z,1.60
